La Porsche — VY9305 — position and weather

sailwx.info

Track history (hours):
 
Tides and Currents Weather Stations Pressure Air Temp Water Temp Dewpoint Dewpoint Depression Visibility Wind Speed Wind Dir Waves Ship Positions

La Porsche

Last reported at 2017-Aug-13 04:27 UTC. Time now 2017-Aug-17 09:52 UTC.
Position N 50°52' W 127°51'.

Length 22 m; draft 2.9 m.

Type: Fishing. MMSI: 316001649.

Date/timePositionNaut miles runAvg speedWind from/ knotsBaromVisibWave heightAir tempDewpointWater temp
2017-Aug-13 04:27N 50°52' W 127°51'4 9.3
2017-Aug-13 04:00N 50°50' W 127°45'5 9.1
2017-Aug-13 03:30N 50°49' W 127°38'5 9.0
2017-Aug-13 03:00N 50°47' W 127°31'4 7.1
2017-Aug-13 02:30N 50°44' W 127°28'1 0.2
2017-Aug-12 20:24N 50°43' W 127°29'1 1.7
2017-Aug-12 19:58N 50°43' W 127°29'0 0.0
2017-Aug-12 19:29N 50°43' W 127°29'0 0.0
2017-Aug-12 19:00N 50°43' W 127°29'0 0.0
2017-Aug-12 18:30N 50°43' W 127°29'0 0.0
2017-Aug-12 18:00N 50°43' W 127°29'0 0.0
2017-Aug-12 17:30N 50°43' W 127°29'0 0.1
2017-Aug-12 17:00N 50°43' W 127°29'0 0.1
2017-Aug-12 16:30N 50°43' W 127°29'0 0.0
2017-Aug-12 16:00N 50°43' W 127°29'0 0.0
2017-Aug-12 15:30N 50°43' W 127°29'0 0.0
2017-Aug-12 15:00N 50°43' W 127°29'0 0.0
2017-Aug-12 14:30N 50°43' W 127°29'0 0.0
2017-Aug-12 14:00N 50°43' W 127°29'0 0.0
2017-Aug-12 13:30N 50°43' W 127°29'0 0.0
2017-Aug-12 13:00N 50°43' W 127°29'0 0.0
2017-Aug-12 12:30N 50°43' W 127°29'0 0.0
2017-Aug-12 12:00N 50°43' W 127°29'0 0.0
2017-Aug-12 11:30N 50°43' W 127°29'0 0.0
2017-Aug-12 11:00N 50°43' W 127°29'0 0.0
2017-Aug-12 10:30N 50°43' W 127°29'0 0.0
2017-Aug-12 10:00N 50°43' W 127°29'0 0.0
2017-Aug-12 09:28N 50°43' W 127°29'0 0.0
2017-Aug-12 09:00N 50°43' W 127°29'0 0.0
2017-Aug-12 08:30N 50°43' W 127°29'0 0.0
2017-Aug-12 08:00N 50°43' W 127°29'0 0.0
2017-Aug-12 07:30N 50°43' W 127°29'0 0.0
2017-Aug-12 07:00N 50°43' W 127°29'0 0.0
2017-Aug-12 06:30N 50°43' W 127°29'0 0.0
2017-Aug-12 06:00N 50°43' W 127°29'0 0.0
2017-Aug-12 05:30N 50°43' W 127°29'0 0.0
2017-Aug-12 05:00N 50°43' W 127°29'0 0.0
2017-Aug-12 04:30N 50°43' W 127°29'0 0.0
2017-Aug-12 04:00N 50°43' W 127°29'0 0.0
2017-Aug-12 03:30N 50°43' W 127°29'0 0.0
2017-Aug-12 03:00N 50°43' W 127°29'0 0.0
2017-Aug-12 02:30N 50°43' W 127°29'0 0.0
2017-Aug-12 02:00N 50°43' W 127°29'0 0.0
2017-Aug-12 01:29N 50°43' W 127°29'1 2.2
2017-Aug-12 00:57N 50°43' W 127°28'0 0.0
2017-Aug-12 00:28N 50°43' W 127°28'0 0.0
2017-Aug-12 00:00N 50°43' W 127°28'1 1.1
2017-Aug-11 23:30N 50°44' W 127°28'0 0.2
2017-Aug-11 22:09N 50°44' W 127°28'0 1.9
2017-Aug-11 22:00N 50°43' W 127°28'0 0.9
2017-Aug-11 21:30N 50°44' W 127°28'4 7.4
2017-Aug-11 21:00N 50°47' W 127°24'2 3.6
2017-Aug-11 20:29N 50°46' W 127°22'2 3.8
2017-Aug-11 20:00N 50°44' W 127°20'2 3.9
2017-Aug-11 19:29N 50°43' W 127°18'2 4.4
2017-Aug-11 19:00N 50°41' W 127°16'4 7.6
2017-Aug-11 18:25N 50°38' W 127°11'4 8.8
2017-Aug-11 17:58N 50°37' W 127°05'4 9.2
2017-Aug-11 17:30N 50°35' W 126°59'510.3
2017-Aug-11 17:00N 50°34' W 126°51'4 9.0
2017-Aug-11 16:30N 50°32' W 126°44'5 9.3
2017-Aug-11 16:00N 50°31' W 126°37'4 8.9
2017-Aug-11 15:30N 50°30' W 126°30'5 8.5
2017-Aug-11 14:54N 50°30' W 126°22'33 6.9
2017-Aug-11 10:05N 50°21' W 125°32'3 7.6
2017-Aug-11 09:44N 50°21' W 125°28'2 6.4
2017-Aug-11 09:28N 50°20' W 125°25'4 8.3
2017-Aug-11 09:00N 50°16' W 125°24'4 8.9
2017-Aug-11 08:30N 50°12' W 125°22'4 8.9
2017-Aug-11 08:00N 50°07' W 125°20'4 8.1
2017-Aug-11 07:31N 50°04' W 125°15'510.7
2017-Aug-11 07:00N 49°60' W 125°12'5 9.6
2017-Aug-11 06:30N 49°56' W 125°06'4 8.5
2017-Aug-11 06:00N 49°54' W 125°01'4 7.8
2017-Aug-11 05:30N 49°51' W 124°57'4 8.0
2017-Aug-11 05:00N 49°49' W 124°52'4 8.3
2017-Aug-11 04:30N 49°46' W 124°47'4 8.3
2017-Aug-11 04:00N 49°44' W 124°42'4 7.9
2017-Aug-11 03:30N 49°41' W 124°37'4 7.9
2017-Aug-11 03:01N 49°39' W 124°32'4 8.0
2017-Aug-11 02:30N 49°37' W 124°27'4 8.5
2017-Aug-11 02:00N 49°34' W 124°22'4 8.3
2017-Aug-11 01:30N 49°32' W 124°16'4 8.6
2017-Aug-11 01:00N 49°30' W 124°10'4 8.6
2017-Aug-11 00:30N 49°27' W 124°05'5 9.4
2017-Aug-11 00:00N 49°25' W 123°58'5 9.6
2017-Aug-10 23:30N 49°24' W 123°51'5 9.3
2017-Aug-10 23:00N 49°23' W 123°44'4 9.0
2017-Aug-10 22:30N 49°21' W 123°38'4 8.7
2017-Aug-10 22:00N 49°19' W 123°32'4 8.8
2017-Aug-10 21:30N 49°18' W 123°25'4 8.3
2017-Aug-10 21:00N 49°16' W 123°19'510.0
2017-Aug-10 20:30N 49°14' W 123°13'5 9.7
2017-Aug-10 20:00N 49°12' W 123°06'4 8.6
2017-Aug-10 19:30N 49°11' W 122°60'3 6.2
2017-Aug-10 19:00N 49°11' W 122°55'1 1.9
2017-Aug-10 18:30N 49°10' W 122°55'0 0.7
2017-Aug-10 18:00N 49°11' W 122°55'0 0.0
2017-Aug-10 17:30N 49°11' W 122°55'0 0.0
2017-Aug-10 17:00N 49°11' W 122°55'0 0.0
2017-Aug-10 16:30N 49°11' W 122°55'0 0.0
2017-Aug-10 16:00N 49°11' W 122°55'0 0.0
2017-Aug-09 00:06N 49°11' W 122°55'0 0.0
2017-Aug-08 22:52N 49°11' W 122°55'0 0.0
2017-Aug-08 22:27N 49°11' W 122°55'0 0.0
2017-Aug-08 09:09N 49°11' W 122°55'0 0.0
2017-Aug-08 08:58N 49°11' W 122°55'0 0.0
2017-Aug-08 07:54N 49°11' W 122°55'0 0.0
2017-Aug-07 16:45N 49°11' W 122°55'0 0.0
2017-Aug-07 16:28N 49°11' W 122°55'0 0.0
2017-Aug-07 16:00N 49°11' W 122°55'0 0.0
2017-Aug-07 15:29N 49°11' W 122°55'0 0.0
2017-Aug-07 15:00N 49°11' W 122°55'0 0.0
2017-Aug-07 14:07N 49°11' W 122°55'0 0.0
2017-Aug-07 12:43N 49°11' W 122°55'0 0.0
2017-Aug-07 12:29N 49°11' W 122°55'0 0.0
2017-Aug-07 09:21N 49°11' W 122°55'0 0.0
2017-Aug-07 08:59N 49°11' W 122°55'0 0.0
2017-Aug-07 08:30N 49°11' W 122°55'0 0.0
2017-Aug-07 08:00N 49°11' W 122°55'0 0.0
2017-Aug-07 07:30N 49°11' W 122°55'0 0.0
2017-Aug-06 20:31N 49°11' W 122°55'0 0.1
2017-Aug-06 20:27N 49°11' W 122°55'0 0.0
2017-Aug-06 19:41N 49°11' W 122°55'0 0.0
2017-Aug-06 13:53N 49°11' W 122°55'0 0.0
2017-Aug-06 12:48N 49°11' W 122°55'0 0.0
2017-Aug-06 12:27N 49°11' W 122°55'0 0.0
2017-Aug-06 12:00N 49°11' W 122°55'0 0.0
2017-Aug-06 08:45N 49°11' W 122°55'0 0.0
2017-Aug-06 08:25N 49°11' W 122°55'0 0.0
2017-Aug-06 01:30N 49°11' W 122°55'0 0.0
2017-Aug-04 03:27N 49°11' W 122°55'0 0.0
2017-Aug-04 01:58N 49°11' W 122°55'0 0.0
2017-Aug-03 18:14N 49°11' W 122°55'0 0.0
2017-Aug-03 17:44N 49°11' W 122°55'0 0.0
2017-Aug-03 16:49N 49°11' W 122°55'0 0.0
2017-Aug-03 16:26N 49°11' W 122°55'0 0.0
2017-Aug-03 16:00N 49°11' W 122°55'0 0.0
2017-Aug-03 15:30N 49°11' W 122°55'0 0.0
2017-Aug-03 15:00N 49°11' W 122°55'0 0.0
2017-Aug-03 13:59N 49°11' W 122°55'0 0.0
2017-Aug-03 13:30N 49°11' W 122°55'0 0.0
2017-Aug-03 13:00N 49°11' W 122°55'0 0.0
2017-Aug-03 12:30N 49°11' W 122°55'0 0.0
2017-Aug-03 11:59N 49°11' W 122°55'0 0.0
2017-Aug-03 11:26N 49°11' W 122°55'0 0.0
2017-Aug-03 11:00N 49°11' W 122°55'0 0.0
2017-Aug-03 10:30N 49°11' W 122°55'0 0.0
2017-Aug-03 09:57N 49°11' W 122°55'0 0.0
2017-Aug-03 09:30N 49°11' W 122°55'0 0.0
2017-Aug-03 08:57N 49°11' W 122°55'0 0.0
2017-Aug-03 08:25N 49°11' W 122°55'0 0.0
2017-Aug-03 07:59N 49°11' W 122°55'0 0.0
2017-Aug-03 07:30N 49°11' W 122°55'0 0.0
2017-Aug-03 07:00N 49°11' W 122°55'0 0.0
2017-Aug-03 06:30N 49°11' W 122°55'0 0.0
2017-Aug-03 06:00N 49°11' W 122°55'0 0.0
2017-Aug-03 05:26N 49°11' W 122°55'0 0.0
2017-Aug-03 05:00N 49°11' W 122°55'  
Track history (hours):
 
Tides and Currents Weather Stations Pressure Air Temp Water Temp Dewpoint Dewpoint Depression Visibility Wind Speed Wind Dir Waves Ship Positions

La Porsche

Last reported at 2017-Aug-13 04:27 UTC. Time now 2017-Aug-17 09:52 UTC.
Position N 50°52' W 127°51'.

Length 22 m; draft 2.9 m.

Type: Fishing. MMSI: 316001649.

Date/timePositionNaut miles runAvg speedWind from/ knotsBaromVisibWave heightAir tempDewpointWater temp
2017-Aug-13 04:27N 50°52' W 127°51'4 9.3
2017-Aug-13 04:00N 50°50' W 127°45'5 9.1
2017-Aug-13 03:30N 50°49' W 127°38'5 9.0
2017-Aug-13 03:00N 50°47' W 127°31'4 7.1
2017-Aug-13 02:30N 50°44' W 127°28'1 0.2
2017-Aug-12 20:24N 50°43' W 127°29'1 1.7
2017-Aug-12 19:58N 50°43' W 127°29'0 0.0
2017-Aug-12 19:29N 50°43' W 127°29'0 0.0
2017-Aug-12 19:00N 50°43' W 127°29'0 0.0
2017-Aug-12 18:30N 50°43' W 127°29'0 0.0
2017-Aug-12 18:00N 50°43' W 127°29'0 0.0
2017-Aug-12 17:30N 50°43' W 127°29'0 0.1
2017-Aug-12 17:00N 50°43' W 127°29'0 0.1
2017-Aug-12 16:30N 50°43' W 127°29'0 0.0
2017-Aug-12 16:00N 50°43' W 127°29'0 0.0
2017-Aug-12 15:30N 50°43' W 127°29'0 0.0
2017-Aug-12 15:00N 50°43' W 127°29'0 0.0
2017-Aug-12 14:30N 50°43' W 127°29'0 0.0
2017-Aug-12 14:00N 50°43' W 127°29'0 0.0
2017-Aug-12 13:30N 50°43' W 127°29'0 0.0
2017-Aug-12 13:00N 50°43' W 127°29'0 0.0
2017-Aug-12 12:30N 50°43' W 127°29'0 0.0
2017-Aug-12 12:00N 50°43' W 127°29'0 0.0
2017-Aug-12 11:30N 50°43' W 127°29'0 0.0
2017-Aug-12 11:00N 50°43' W 127°29'0 0.0
2017-Aug-12 10:30N 50°43' W 127°29'0 0.0
2017-Aug-12 10:00N 50°43' W 127°29'0 0.0
2017-Aug-12 09:28N 50°43' W 127°29'0 0.0
2017-Aug-12 09:00N 50°43' W 127°29'0 0.0
2017-Aug-12 08:30N 50°43' W 127°29'0 0.0
2017-Aug-12 08:00N 50°43' W 127°29'0 0.0
2017-Aug-12 07:30N 50°43' W 127°29'0 0.0
2017-Aug-12 07:00N 50°43' W 127°29'0 0.0
2017-Aug-12 06:30N 50°43' W 127°29'0 0.0
2017-Aug-12 06:00N 50°43' W 127°29'0 0.0
2017-Aug-12 05:30N 50°43' W 127°29'0 0.0
2017-Aug-12 05:00N 50°43' W 127°29'0 0.0
2017-Aug-12 04:30N 50°43' W 127°29'0 0.0
2017-Aug-12 04:00N 50°43' W 127°29'0 0.0
2017-Aug-12 03:30N 50°43' W 127°29'0 0.0
2017-Aug-12 03:00N 50°43' W 127°29'0 0.0
2017-Aug-12 02:30N 50°43' W 127°29'0 0.0
2017-Aug-12 02:00N 50°43' W 127°29'0 0.0
2017-Aug-12 01:29N 50°43' W 127°29'1 2.2
2017-Aug-12 00:57N 50°43' W 127°28'0 0.0
2017-Aug-12 00:28N 50°43' W 127°28'0 0.0
2017-Aug-12 00:00N 50°43' W 127°28'1 1.1
2017-Aug-11 23:30N 50°44' W 127°28'0 0.2
2017-Aug-11 22:09N 50°44' W 127°28'0 1.9
2017-Aug-11 22:00N 50°43' W 127°28'0 0.9
2017-Aug-11 21:30N 50°44' W 127°28'4 7.4
2017-Aug-11 21:00N 50°47' W 127°24'2 3.6
2017-Aug-11 20:29N 50°46' W 127°22'2 3.8
2017-Aug-11 20:00N 50°44' W 127°20'2 3.9
2017-Aug-11 19:29N 50°43' W 127°18'2 4.4
2017-Aug-11 19:00N 50°41' W 127°16'4 7.6
2017-Aug-11 18:25N 50°38' W 127°11'4 8.8
2017-Aug-11 17:58N 50°37' W 127°05'4 9.2
2017-Aug-11 17:30N 50°35' W 126°59'510.3
2017-Aug-11 17:00N 50°34' W 126°51'4 9.0
2017-Aug-11 16:30N 50°32' W 126°44'5 9.3
2017-Aug-11 16:00N 50°31' W 126°37'4 8.9
2017-Aug-11 15:30N 50°30' W 126°30'5 8.5
2017-Aug-11 14:54N 50°30' W 126°22'33 6.9
2017-Aug-11 10:05N 50°21' W 125°32'3 7.6
2017-Aug-11 09:44N 50°21' W 125°28'2 6.4
2017-Aug-11 09:28N 50°20' W 125°25'4 8.3
2017-Aug-11 09:00N 50°16' W 125°24'4 8.9
2017-Aug-11 08:30N 50°12' W 125°22'4 8.9
2017-Aug-11 08:00N 50°07' W 125°20'4 8.1
2017-Aug-11 07:31N 50°04' W 125°15'510.7
2017-Aug-11 07:00N 49°60' W 125°12'5 9.6
2017-Aug-11 06:30N 49°56' W 125°06'4 8.5
2017-Aug-11 06:00N 49°54' W 125°01'4 7.8
2017-Aug-11 05:30N 49°51' W 124°57'4 8.0
2017-Aug-11 05:00N 49°49' W 124°52'4 8.3
2017-Aug-11 04:30N 49°46' W 124°47'4 8.3
2017-Aug-11 04:00N 49°44' W 124°42'4 7.9
2017-Aug-11 03:30N 49°41' W 124°37'4 7.9
2017-Aug-11 03:01N 49°39' W 124°32'4 8.0
2017-Aug-11 02:30N 49°37' W 124°27'4 8.5
2017-Aug-11 02:00N 49°34' W 124°22'4 8.3
2017-Aug-11 01:30N 49°32' W 124°16'4 8.6
2017-Aug-11 01:00N 49°30' W 124°10'4 8.6
2017-Aug-11 00:30N 49°27' W 124°05'5 9.4
2017-Aug-11 00:00N 49°25' W 123°58'5 9.6
2017-Aug-10 23:30N 49°24' W 123°51'5 9.3
2017-Aug-10 23:00N 49°23' W 123°44'4 9.0
2017-Aug-10 22:30N 49°21' W 123°38'4 8.7
2017-Aug-10 22:00N 49°19' W 123°32'4 8.8
2017-Aug-10 21:30N 49°18' W 123°25'4 8.3
2017-Aug-10 21:00N 49°16' W 123°19'510.0
2017-Aug-10 20:30N 49°14' W 123°13'5 9.7
2017-Aug-10 20:00N 49°12' W 123°06'4 8.6
2017-Aug-10 19:30N 49°11' W 122°60'3 6.2
2017-Aug-10 19:00N 49°11' W 122°55'1 1.9
2017-Aug-10 18:30N 49°10' W 122°55'0 0.7
2017-Aug-10 18:00N 49°11' W 122°55'0 0.0
2017-Aug-10 17:30N 49°11' W 122°55'0 0.0
2017-Aug-10 17:00N 49°11' W 122°55'0 0.0
2017-Aug-10 16:30N 49°11' W 122°55'0 0.0
2017-Aug-10 16:00N 49°11' W 122°55'0 0.0
2017-Aug-09 00:06N 49°11' W 122°55'0 0.0
2017-Aug-08 22:52N 49°11' W 122°55'0 0.0
2017-Aug-08 22:27N 49°11' W 122°55'0 0.0
2017-Aug-08 09:09N 49°11' W 122°55'0 0.0
2017-Aug-08 08:58N 49°11' W 122°55'0 0.0
2017-Aug-08 07:54N 49°11' W 122°55'0 0.0
2017-Aug-07 16:45N 49°11' W 122°55'0 0.0
2017-Aug-07 16:28N 49°11' W 122°55'0 0.0
2017-Aug-07 16:00N 49°11' W 122°55'0 0.0
2017-Aug-07 15:29N 49°11' W 122°55'0 0.0
2017-Aug-07 15:00N 49°11' W 122°55'0 0.0
2017-Aug-07 14:07N 49°11' W 122°55'0 0.0
2017-Aug-07 12:43N 49°11' W 122°55'0 0.0
2017-Aug-07 12:29N 49°11' W 122°55'0 0.0
2017-Aug-07 09:21N 49°11' W 122°55'0 0.0
2017-Aug-07 08:59N 49°11' W 122°55'0 0.0
2017-Aug-07 08:30N 49°11' W 122°55'0 0.0
2017-Aug-07 08:00N 49°11' W 122°55'0 0.0
2017-Aug-07 07:30N 49°11' W 122°55'0 0.0
2017-Aug-06 20:31N 49°11' W 122°55'0 0.1
2017-Aug-06 20:27N 49°11' W 122°55'0 0.0
2017-Aug-06 19:41N 49°11' W 122°55'0 0.0
2017-Aug-06 13:53N 49°11' W 122°55'0 0.0
2017-Aug-06 12:48N 49°11' W 122°55'0 0.0
2017-Aug-06 12:27N 49°11' W 122°55'0 0.0
2017-Aug-06 12:00N 49°11' W 122°55'0 0.0
2017-Aug-06 08:45N 49°11' W 122°55'0 0.0
2017-Aug-06 08:25N 49°11' W 122°55'0 0.0
2017-Aug-06 01:30N 49°11' W 122°55'0 0.0
2017-Aug-04 03:27N 49°11' W 122°55'0 0.0
2017-Aug-04 01:58N 49°11' W 122°55'0 0.0
2017-Aug-03 18:14N 49°11' W 122°55'0 0.0
2017-Aug-03 17:44N 49°11' W 122°55'0 0.0
2017-Aug-03 16:49N 49°11' W 122°55'0 0.0
2017-Aug-03 16:26N 49°11' W 122°55'0 0.0
2017-Aug-03 16:00N 49°11' W 122°55'0 0.0
2017-Aug-03 15:30N 49°11' W 122°55'0 0.0
2017-Aug-03 15:00N 49°11' W 122°55'0 0.0
2017-Aug-03 13:59N 49°11' W 122°55'0 0.0
2017-Aug-03 13:30N 49°11' W 122°55'0 0.0
2017-Aug-03 13:00N 49°11' W 122°55'0 0.0
2017-Aug-03 12:30N 49°11' W 122°55'0 0.0
2017-Aug-03 11:59N 49°11' W 122°55'0 0.0
2017-Aug-03 11:26N 49°11' W 122°55'0 0.0
2017-Aug-03 11:00N 49°11' W 122°55'0 0.0
2017-Aug-03 10:30N 49°11' W 122°55'0 0.0
2017-Aug-03 09:57N 49°11' W 122°55'0 0.0
2017-Aug-03 09:30N 49°11' W 122°55'0 0.0
2017-Aug-03 08:57N 49°11' W 122°55'0 0.0
2017-Aug-03 08:25N 49°11' W 122°55'0 0.0
2017-Aug-03 07:59N 49°11' W 122°55'0 0.0
2017-Aug-03 07:30N 49°11' W 122°55'0 0.0
2017-Aug-03 07:00N 49°11' W 122°55'0 0.0
2017-Aug-03 06:30N 49°11' W 122°55'0 0.0
2017-Aug-03 06:00N 49°11' W 122°55'0 0.0
2017-Aug-03 05:26N 49°11' W 122°55'0 0.0
2017-Aug-03 05:00N 49°11' W 122°55'  

Dump ship's entire track history